FRS41 / 953 7700 Squawk Report (14th of January, 2019)

Time Lat Lon Altitude Heading Speed Vertical Rate
2019-01-14 05:00:32 GMT 24.293379 55.602169 2,500 40 146 -2496
2019-01-14 05:00:23 GMT 24.290491 55.595898 2,500 40 146 -2496
2019-01-14 05:00:20 GMT 24.289375 55.594967 2,575 22 150 -2496
2019-01-14 05:00:16 GMT 24.286148 55.593616 2,775 8 150 -2240
2019-01-14 05:00:12 GMT 24.282671 55.592945 2,975 8 150 -2304
2019-01-14 04:59:57 GMT 24.272736 55.595142 3,425 332 153 -2048
2019-01-14 04:59:49 GMT 24.270243 55.599785 3,675 191 162 64
2019-01-14 04:59:36 GMT 24.272570 55.608078 3,825 224 149 -256
2019-01-14 04:59:27 GMT 24.278320 55.610962 3,850 191 162 64
2019-01-14 04:59:23 GMT 24.282852 55.611828 3,850 190 170 0
2019-01-14 04:59:16 GMT 24.287659 55.612690 3,850 188 188 -128
2019-01-14 04:59:11 GMT 24.291000 55.613201 3,850 186 192 -128
2019-01-14 04:59:06 GMT 24.295380 55.613777 3,875 186 194 -448
2019-01-14 04:58:59 GMT 24.301804 55.613659 4,050 162 203 -3840
2019-01-14 04:58:56 GMT 24.304504 55.612846 4,275 154 203 -4288
2019-01-14 04:58:51 GMT 24.309952 55.608826 4,775 136 205 -4736
2019-01-14 04:58:46 GMT 24.312195 55.605419 5,025 117 207 -4608
2019-01-14 04:58:38 GMT 24.313768 55.598335 5,600 93 209 -4416
2019-01-14 04:58:35 GMT 24.313477 55.595142 5,825 77 211 -3392
2019-01-14 04:58:28 GMT 24.310091 55.588539 6,125 44 221 -2368
2019-01-14 04:58:25 GMT 24.306740 55.585793 6,275 29 228 -2304
2019-01-14 04:58:19 GMT 24.300734 55.583305 6,450 14 232 -2240
2019-01-14 04:58:14 GMT 24.296497 55.582218 6,575 11 233 -1984
2019-01-14 04:58:07 GMT 24.288986 55.580799 6,775 9 235 -1728
2019-01-14 04:58:04 GMT 24.284683 55.580090 6,900 9 235 -1472
2019-01-14 04:57:58 GMT 24.277132 55.578644 7,050 10 235 -1280
2019-01-14 04:57:52 GMT 24.272802 55.577812 7,125 10 236 -1216
2019-01-14 04:57:47 GMT 24.266333 55.576260 7,250 14 238 -1216
2019-01-14 04:57:42 GMT 24.260971 55.574596 7,350 16 239 -1024
2019-01-14 04:57:37 GMT 24.254562 55.572510 7,425 16 242 -1088
2019-01-14 04:57:32 GMT 24.249201 55.570660 7,525 17 242 -1024
2019-01-14 04:57:25 GMT 24.243851 55.568745 7,600 19 242 -1024
2019-01-14 04:57:22 GMT 24.240635 55.567551 7,675 20 243 -896
2019-01-14 04:57:19 GMT 24.236444 55.565788 7,725 21 242 -832
2019-01-14 04:57:15 GMT 24.232256 55.563927 7,775 22 244 -576
2019-01-14 04:57:09 GMT 24.225924 55.561024 7,800 22 249 -192
2019-01-14 04:57:05 GMT 24.221642 55.559105 7,825 22 251 -192
2019-01-14 04:57:00 GMT 24.216202 55.556690 7,850 21 255 -128
2019-01-14 04:56:53 GMT 24.209564 55.553791 7,850 22 259 -256
2019-01-14 04:56:50 GMT 24.206232 55.552265 7,875 23 260 -128
2019-01-14 04:56:44 GMT 24.198624 55.548248 7,875 29 260 64
2019-01-14 04:56:40 GMT 24.195478 55.546307 7,875 31 260 0
2019-01-14 04:56:33 GMT 24.187380 55.540398 7,875 37 262 -128
2019-01-14 04:56:27 GMT 24.180771 55.534565 7,875 40 263 64
2019-01-14 04:56:23 GMT 24.177017 55.531109 7,875 40 262 64
2019-01-14 04:56:19 GMT 24.174252 55.528530 7,900 41 262 64
2019-01-14 04:56:15 GMT 24.169647 55.524090 7,875 41 264 0
2019-01-14 04:56:12 GMT 24.167816 55.522358 7,875 41 264 0
2019-01-14 04:56:08 GMT 24.164108 55.518848 7,875 41 264 64
2019-01-14 04:56:05 GMT 24.160400 55.515289 7,875 41 265 128
2019-01-14 04:56:01 GMT 24.157633 55.512619 7,850 41 266 192
2019-01-14 04:55:58 GMT 24.154861 55.509899 7,850 42 266 256
2019-01-14 04:55:51 GMT 24.148415 55.503502 7,825 42 269 128
2019-01-14 04:55:47 GMT 24.145660 55.500690 7,800 42 270 64
2019-01-14 04:55:41 GMT 24.138199 55.493317 7,825 41 272 -128
2019-01-14 04:55:37 GMT 24.135380 55.490543 7,825 42 273 -128
2019-01-14 04:55:30 GMT 24.127838 55.483082 7,825 42 276 64
2019-01-14 04:55:26 GMT 24.124969 55.480244 7,825 42 276 0
2019-01-14 04:55:18 GMT 24.118250 55.473701 7,850 41 278 -64
2019-01-14 04:55:15 GMT 24.114340 55.470024 7,825 40 278 -64
2019-01-14 04:55:09 GMT 24.107391 55.463665 7,850 39 280 0
2019-01-14 04:55:05 GMT 24.104376 55.460903 7,850 40 281 -64
2019-01-14 04:54:58 GMT 24.097412 55.454510 7,850 39 281 -128
2019-01-14 04:54:55 GMT 24.094414 55.451782 7,850 39 282 0
2019-01-14 04:54:46 GMT 24.085236 55.443676 7,850 38 282 -128
2019-01-14 04:54:43 GMT 24.082216 55.440948 7,850 39 281 -64
2019-01-14 04:54:37 GMT 24.075119 55.434620 7,900 39 281 -64
2019-01-14 04:54:34 GMT 24.072069 55.431934 7,875 39 280 0
2019-01-14 04:54:23 GMT 24.061968 55.423019 7,875 38 279 -128
2019-01-14 04:54:15 GMT 24.053822 55.416023 7,875 38 277 192
2019-01-14 04:54:12 GMT 24.049816 55.412498 7,875 39 277 256
2019-01-14 04:54:05 GMT 24.042938 55.406189 7,850 40 276 64
2019-01-14 04:54:01 GMT 24.039047 55.402527 7,850 40 273 -64
2019-01-14 04:53:53 GMT 24.032360 55.396332 7,850 40 264 -64
2019-01-14 04:53:50 GMT 24.029617 55.393677 7,850 41 260 -64
2019-01-14 04:53:42 GMT 24.022476 55.386810 7,800 41 248 704
2019-01-14 04:53:39 GMT 24.019043 55.383503 7,800 41 248 704
2019-01-14 04:53:31 GMT 24.013041 55.377934 7,700 40 240 1664
2019-01-14 04:53:28 GMT 24.009548 55.374825 7,550 38 240 1984
2019-01-14 04:53:23 GMT 24.006010 55.371872 7,400 36 241 1856
2019-01-14 04:53:20 GMT 24.003342 55.369720 7,325 36 239 1984
2019-01-14 04:53:16 GMT 23.998796 55.366173 7,175 35 240 2240
2019-01-14 04:53:10 GMT 23.995165 55.363319 7,025 35 241 2112
2019-01-14 04:53:06 GMT 23.989672 55.359020 6,850 35 243 2048
2019-01-14 04:52:59 GMT 23.983200 55.354004 6,600 35 245 2112
2019-01-14 04:52:55 GMT 23.979538 55.351105 6,450 36 245 2112
2019-01-14 04:52:50 GMT 23.976776 55.348915 6,350 36 245 2176
2019-01-14 04:52:47 GMT 23.973999 55.346680 6,250 36 246 2176
2019-01-14 04:52:44 GMT 23.969421 55.342953 6,100 36 247 1984
2019-01-14 04:52:40 GMT 23.966675 55.340679 6,025 36 248 1792
2019-01-14 04:52:35 GMT 23.962967 55.337677 5,875 36 247 1664
2019-01-14 04:52:30 GMT 23.957428 55.333252 5,700 36 246 1984
2019-01-14 04:52:21 GMT 23.949219 55.326576 5,475 37 244 1664
2019-01-14 04:52:18 GMT 23.947401 55.325077 5,425 37 243 1792
2019-01-14 04:52:09 GMT 23.938744 55.317249 5,075 43 239 1984
2019-01-14 04:52:00 GMT 23.929138 55.305737 4,675 52 237 3008
2019-01-14 04:51:47 GMT 23.922823 55.297298 4,200 45 244 3776
2019-01-14 04:51:44 GMT 23.919424 55.293880 4,000 36 256 3200
2019-01-14 04:51:36 GMT 23.913185 55.289886 3,725 19 266 1408
2019-01-14 04:51:26 GMT 23.900024 55.291138 3,650 326 261 960
2019-01-14 04:51:15 GMT 23.892702 55.302532 3,350 274 255 1920
2019-01-14 04:51:02 GMT 23.896660 55.316578 2,925 227 247 1280
2019-01-14 04:50:52 GMT 23.907349 55.323994 2,850 207 253 64
2019-01-14 04:50:41 GMT 23.917877 55.329845 2,875 208 252 -64
2019-01-14 04:50:30 GMT 23.929247 55.336372 2,875 208 248 0
2019-01-14 04:50:19 GMT 23.940353 55.342712 2,825 209 243 576
2019-01-14 04:50:08 GMT 23.952209 55.349934 2,725 210 242 448
2019-01-14 04:48:39 GMT 24.025471 55.409081 2,300 205 239 0
2019-01-14 04:48:36 GMT 24.027519 55.410114 2,300 205 239 0
2019-01-14 04:48:26 GMT 24.038635 55.415752 2,300 206 240 64
2019-01-14 04:48:14 GMT 24.051819 55.422451 2,275 205 241 -64
2019-01-14 04:47:35 GMT 24.090271 55.441998 2,325 208 251 -64
2019-01-14 04:47:24 GMT 24.101490 55.448826 2,325 218 253 0
2019-01-14 04:47:21 GMT 24.104324 55.451153 2,325 231 257 192
2019-01-14 04:47:12 GMT 24.111219 55.460022 2,300 241 259 -256
2019-01-14 04:47:04 GMT 24.115921 55.469193 2,325 244 258 64
2019-01-14 04:46:54 GMT 24.121857 55.482025 2,325 245 258 128
2019-01-14 04:46:43 GMT 24.127029 55.493824 2,325 245 257 -128
2019-01-14 04:46:33 GMT 24.132633 55.506714 2,300 245 254 0
2019-01-14 04:46:23 GMT 24.137383 55.518581 2,300 250 255 192
2019-01-14 04:46:18 GMT 24.139389 55.524700 2,275 252 255 128
2019-01-14 04:46:12 GMT 24.141247 55.530811 2,275 252 255 0
2019-01-14 04:46:01 GMT 24.145477 55.544178 2,275 251 253 64
2019-01-14 04:45:51 GMT 24.149765 55.557446 2,250 251 253 64
2019-01-14 04:45:41 GMT 24.153723 55.569523 2,275 249 252 0
2019-01-14 04:45:30 GMT 24.159168 55.580715 2,275 231 248 0
2019-01-14 04:45:26 GMT 24.163055 55.585327 2,275 210 244 -128
2019-01-14 04:45:20 GMT 24.168686 55.589550 2,275 208 244 -64
2019-01-14 04:45:14 GMT 24.175003 55.592194 2,275 199 242 -128
2019-01-14 04:45:09 GMT 24.179398 55.593262 2,275 191 242 -128
2019-01-14 04:45:04 GMT 24.184958 55.594292 2,300 190 242 0
2019-01-14 04:44:59 GMT 24.191614 55.595432 2,300 190 242 64
2019-01-14 04:44:54 GMT 24.197205 55.596466 2,300 190 242 0

Making use of Plane Finder data

You are free to use the raw flight data, aircraft information and images provided in this report for your own purposes provided the data is correctly attributed to Plane Finder. We ask that you please credit Plane Finder and link to planefinder.net in close proximity to the content.

Optionally one of the following logos (no smaller then 150x24px) can be used and must link to planefinder.net

Embedding the Plane Finder map

You are welcome to embed the Plane Finder playback map on your website to offer visitors a more interactive experience. We suggest using the following HTML code:

<iframe src="//planefinder.net/data/report/FRS41-953-7700-squawk-2019-01-14/map" width="800" height="600" seamless="seamless"></iframe>

Where our data comes from

Plane Finder has a global network of data feeds and antenna radars that receive data broadcast directly from aircraft. The primary technologies used are ADS-B and MLAT. We also show feeds from the FAA and a FLARM glider feed.

Click here to find out more about the Plane Finder network.

How we collect our data